Terminal Aerodrome Forecast
Issued by NWS

Home | Current Version | Previous Version | Text Only | Print | Product List | Glossary On
Versions: 1 2 3 4 5 6 7 8 9 10 11 12 13 14 15 16 17 18 19 20
000
FTUS45 KTFX 262300
TAFHLN
TAF
KHLN 262340Z 2700/2724 33005KT P6SM VCFG SCT006 BKN060
      TEMPO 2700/2704 4SM BR BKN120
     FM270800 26009KT P6SM VCSH SCT060 BKN100
     FM271800 26018G28KT P6SM SCT080 BKN200=

USA.gov is the U.S. government's official web portal to all federal, state and local government web resources and services.